createdAt,value
2019-03-20T00:01:08.393Z,87.67
2019-03-20T00:03:38.512Z,101.50
2019-03-20T00:06:08.769Z,101.40
2019-03-20T00:11:26.999Z,91.30
2019-03-20T00:13:57.091Z,92.27
2019-03-20T00:16:27.227Z,95.80
2019-03-20T00:18:57.440Z,87.33
2019-03-20T00:21:27.473Z,87.15
2019-03-20T00:23:57.531Z,91.95
2019-03-20T00:26:27.612Z,100.75
2019-03-20T00:28:57.729Z,97.05
2019-03-20T00:31:27.820Z,98.37
2019-03-20T00:33:57.791Z,84.52
2019-03-20T00:36:27.898Z,94.05
2019-03-20T00:38:58.153Z,82.72
2019-03-20T00:41:29.257Z,107.27
2019-03-20T00:43:59.287Z,82.70
2019-03-20T00:46:29.327Z,76.92
2019-03-20T00:48:59.347Z,101.30
2019-03-20T00:51:29.774Z,100.67
2019-03-20T00:53:59.939Z,74.27
2019-03-20T00:56:30.180Z,90.35
2019-03-20T00:59:00.437Z,78.15
2019-03-20T01:01:30.420Z,77.62
2019-03-20T01:04:00.675Z,82.57
2019-03-20T01:06:30.348Z,79.25
2019-03-20T01:09:00.450Z,70.08
2019-03-20T01:11:30.698Z,80.42
2019-03-20T01:14:00.842Z,76.72
2019-03-20T01:16:30.867Z,83.33
2019-03-20T01:19:00.912Z,76.20
2019-03-20T01:21:30.996Z,81.42
2019-03-20T01:24:03.455Z,78.00
2019-03-20T01:26:36.208Z,84.07
2019-03-20T01:29:06.355Z,110.15
2019-03-20T01:31:36.643Z,130.23
2019-03-20T01:34:06.788Z,87.78
2019-03-20T01:36:38.627Z,92.20
2019-03-20T01:39:09.169Z,84.77
2019-03-20T01:41:40.006Z,87.65
2019-03-20T01:44:10.210Z,88.22
2019-03-20T01:46:40.241Z,92.22
2019-03-20T01:49:11.462Z,96.08
2019-03-20T01:51:41.603Z,91.05
2019-03-20T01:54:11.997Z,87.22
2019-03-20T01:56:42.023Z,96.90
2019-03-20T01:59:58.658Z,92.12
2019-03-20T02:02:28.816Z,90.97
2019-03-20T02:04:58.975Z,92.57
2019-03-20T02:07:29.018Z,86.40
2019-03-20T02:09:59.204Z,94.00
2019-03-20T02:12:29.417Z,91.08
2019-03-20T02:14:59.558Z,99.03
2019-03-20T02:17:29.687Z,84.95
2019-03-20T02:20:01.769Z,81.40
2019-03-20T02:22:32.000Z,85.50
2019-03-20T02:25:02.256Z,89.33
2019-03-20T02:27:33.606Z,88.42
2019-03-20T02:30:03.831Z,84.67
2019-03-20T02:32:33.930Z,84.05
2019-03-20T02:35:04.096Z,82.03
2019-03-20T02:37:34.289Z,77.10
2019-03-20T02:40:05.017Z,80.57
2019-03-20T02:42:35.212Z,79.40
2019-03-20T02:45:06.805Z,79.55
2019-03-20T02:47:36.980Z,82.02
2019-03-20T02:50:09.157Z,78.90
2019-03-20T02:52:39.338Z,79.05
2019-03-20T02:55:11.096Z,80.65
2019-03-20T02:57:41.171Z,75.62
2019-03-20T03:00:14.080Z,81.63
2019-03-20T03:02:44.691Z,84.80
2019-03-20T03:05:15.553Z,84.85
2019-03-20T03:07:45.876Z,79.42
2019-03-20T03:10:17.163Z,82.15
2019-03-20T03:12:47.516Z,77.90
2019-03-20T03:15:18.599Z,76.17
2019-03-20T03:17:48.787Z,71.30
2019-03-20T03:20:19.064Z,78.70
2019-03-20T03:22:49.354Z,116.47
2019-03-20T03:25:19.790Z,68.95
2019-03-20T03:27:49.800Z,77.05
2019-03-20T03:30:20.162Z,71.80
2019-03-20T03:32:50.208Z,71.62
2019-03-20T03:35:20.481Z,78.62
2019-03-20T03:37:50.630Z,71.20
2019-03-20T03:40:21.667Z,69.30
2019-03-20T03:42:51.751Z,68.55
2019-03-20T03:45:21.806Z,67.35
2019-03-20T03:47:52.056Z,65.60
2019-03-20T03:50:22.158Z,68.95
2019-03-20T03:52:52.257Z,65.03
2019-03-20T03:55:22.725Z,67.82
2019-03-20T03:57:52.708Z,73.15
2019-03-20T04:00:22.784Z,73.00
2019-03-20T04:02:52.867Z,71.72
2019-03-20T04:05:22.887Z,70.55
2019-03-20T04:07:53.629Z,66.62
2019-03-20T04:10:23.787Z,65.80
2019-03-20T04:12:53.934Z,66.90
2019-03-20T04:15:24.188Z,64.00
2019-03-20T04:17:54.342Z,70.25
2019-03-20T04:20:24.443Z,62.13
2019-03-20T04:22:54.578Z,62.40
2019-03-20T04:25:25.119Z,63.80
2019-03-20T04:27:56.473Z,65.85
2019-03-20T04:30:26.584Z,58.67
2019-03-20T04:32:56.844Z,57.30
2019-03-20T04:35:26.765Z,58.58
2019-03-20T04:37:57.098Z,63.68
2019-03-20T04:40:27.376Z,60.33
2019-03-20T04:42:57.612Z,65.78
2019-03-20T04:45:27.633Z,74.50
2019-03-20T04:47:57.807Z,59.00
2019-03-20T04:50:27.573Z,60.08
2019-03-20T04:52:57.799Z,60.78
2019-03-20T04:55:27.827Z,52.40
2019-03-20T04:57:59.061Z,58.70
2019-03-20T05:00:29.453Z,59.88
2019-03-20T05:03:01.029Z,55.10
2019-03-20T05:05:30.930Z,56.90
2019-03-20T05:08:01.085Z,56.00
2019-03-20T05:10:31.265Z,51.70
2019-03-20T05:13:01.427Z,56.35
2019-03-20T05:15:31.492Z,51.88
2019-03-20T05:18:01.671Z,49.63
2019-03-20T05:20:31.785Z,47.73
2019-03-20T05:23:01.903Z,48.50
2019-03-20T05:25:31.991Z,47.23
2019-03-20T05:28:02.219Z,57.53
2019-03-20T05:30:32.230Z,50.73
2019-03-20T05:33:02.299Z,53.17
2019-03-20T05:35:32.480Z,50.43
2019-03-20T05:38:02.598Z,50.30
2019-03-20T05:40:32.738Z,44.85
2019-03-20T05:43:02.437Z,44.88
2019-03-20T05:45:32.495Z,43.87
2019-03-20T05:48:03.543Z,46.02
2019-03-20T05:50:33.985Z,49.03
2019-03-20T05:53:04.036Z,60.65
2019-03-20T05:55:34.143Z,44.10
2019-03-20T05:58:04.366Z,46.83
2019-03-20T06:00:35.815Z,42.77
2019-03-20T06:03:06.064Z,51.25
2019-03-20T06:05:36.205Z,43.10
2019-03-20T06:08:06.462Z,42.08
2019-03-20T06:10:37.187Z,40.78
2019-03-20T06:13:07.212Z,40.12
2019-03-20T06:15:37.282Z,55.75
2019-03-20T06:18:07.236Z,43.45
2019-03-20T06:20:37.425Z,42.13
2019-03-20T06:23:07.427Z,39.05
2019-03-20T06:25:37.502Z,46.37
2019-03-20T06:28:07.624Z,40.13
2019-03-20T06:30:37.810Z,40.03
2019-03-20T06:33:07.839Z,42.23
2019-03-20T06:35:38.384Z,37.55
2019-03-20T06:38:08.533Z,40.27
2019-03-20T06:40:38.671Z,61.08
2019-03-20T06:43:08.715Z,43.50
2019-03-20T06:45:38.721Z,41.23
2019-03-20T06:48:08.858Z,40.12
2019-03-20T06:50:39.096Z,39.03
2019-03-20T06:53:09.325Z,39.83
2019-03-20T06:55:39.423Z,39.33
2019-03-20T06:58:09.661Z,42.50
2019-03-20T07:00:42.669Z,38.67
2019-03-20T07:03:15.927Z,38.43
2019-03-20T07:05:48.983Z,38.85
2019-03-20T07:08:20.060Z,46.73
2019-03-20T07:10:54.089Z,55.88
2019-03-20T07:13:25.378Z,43.73
2019-03-20T07:15:55.640Z,91.67
2019-03-20T07:21:13.830Z,37.85
2019-03-20T07:23:43.783Z,76.28
2019-03-20T07:26:13.907Z,62.13
2019-03-20T07:28:44.126Z,43.98
2019-03-20T07:31:15.741Z,43.02
2019-03-20T07:33:45.665Z,63.52
2019-03-20T07:36:15.989Z,40.15
2019-03-20T07:38:46.119Z,37.30
2019-03-20T07:41:16.298Z,35.93
2019-03-20T07:43:46.364Z,39.83
2019-03-20T07:46:16.551Z,34.78
2019-03-20T07:48:46.840Z,35.40
2019-03-20T07:51:16.972Z,34.80
2019-03-20T07:53:47.137Z,34.33
2019-03-20T07:56:17.510Z,35.03
2019-03-20T07:58:47.457Z,36.80
2019-03-20T08:01:20.104Z,33.75
2019-03-20T08:03:49.283Z,35.20
2019-03-20T08:06:19.425Z,45.33
2019-03-20T08:08:49.709Z,35.75
2019-03-20T08:11:19.701Z,36.10
2019-03-20T08:13:49.692Z,36.60
2019-03-20T08:16:19.758Z,35.38
2019-03-20T08:18:50.060Z,34.20
2019-03-20T08:21:20.076Z,33.70
2019-03-20T08:23:50.141Z,37.17
2019-03-20T08:26:20.297Z,35.15
2019-03-20T08:28:50.489Z,36.10
2019-03-20T08:31:20.671Z,36.50
2019-03-20T08:33:50.818Z,35.33
2019-03-20T08:36:21.187Z,35.03
2019-03-20T08:38:51.479Z,42.13
2019-03-20T08:41:21.397Z,37.65
2019-03-20T08:43:51.511Z,41.40
2019-03-20T08:46:21.601Z,42.35
2019-03-20T08:48:51.798Z,40.33
2019-03-20T08:51:21.454Z,36.60
2019-03-20T08:53:51.323Z,42.77
2019-03-20T08:59:09.775Z,38.50
2019-03-20T09:01:39.870Z,37.48
2019-03-20T09:04:10.003Z,42.33
2019-03-20T09:06:40.263Z,39.08
2019-03-20T09:09:10.430Z,37.88
2019-03-20T09:12:07.272Z,40.90
2019-03-20T09:14:37.388Z,38.53
2019-03-20T09:17:07.562Z,47.53
2019-03-20T09:19:37.665Z,37.93
2019-03-20T09:22:08.093Z,37.67
2019-03-20T09:24:38.291Z,40.05
2019-03-20T09:27:08.536Z,36.45
2019-03-20T09:29:41.065Z,39.63
2019-03-20T09:32:10.074Z,40.80
2019-03-20T09:34:40.333Z,44.23
2019-03-20T09:37:10.484Z,41.20
2019-03-20T09:39:40.648Z,44.15
2019-03-20T09:42:10.873Z,41.80
2019-03-20T09:47:15.175Z,43.98
2019-03-20T09:49:45.348Z,41.37
2019-03-20T09:52:15.545Z,43.40
2019-03-20T09:54:45.640Z,42.67
2019-03-20T09:57:16.006Z,42.03
2019-03-20T09:59:46.561Z,49.43
2019-03-20T10:02:16.839Z,48.98
2019-03-20T10:04:46.964Z,42.97
2019-03-20T10:07:16.962Z,42.90
2019-03-20T10:09:47.299Z,47.45
2019-03-20T10:12:17.462Z,47.30
2019-03-20T10:14:47.739Z,46.23
2019-03-20T10:17:17.884Z,43.52
2019-03-20T10:19:48.210Z,52.15
2019-03-20T10:22:18.141Z,59.05
2019-03-20T10:24:48.391Z,45.38
2019-03-20T10:27:18.515Z,43.50
2019-03-20T10:29:48.702Z,46.23
2019-03-20T10:32:18.883Z,46.50
2019-03-20T10:34:49.148Z,44.88
2019-03-20T10:37:19.312Z,66.47
2019-03-20T10:39:49.294Z,49.63
2019-03-20T10:42:19.515Z,41.48
2019-03-20T10:44:49.722Z,54.60
2019-03-20T10:47:19.733Z,43.77
2019-03-20T10:49:49.901Z,42.80
2019-03-20T10:52:20.091Z,53.17
2019-03-20T10:54:50.301Z,46.73
2019-03-20T10:57:20.365Z,48.20
2019-03-20T10:59:51.487Z,51.13
2019-03-20T11:02:21.554Z,51.58
2019-03-20T11:04:51.601Z,52.03
2019-03-20T11:07:21.681Z,54.38
2019-03-20T11:09:51.938Z,55.50
2019-03-20T11:12:22.312Z,57.67
2019-03-20T11:14:52.319Z,48.10
2019-03-20T11:17:22.455Z,45.45
2019-03-20T11:19:52.303Z,47.43
2019-03-20T11:22:23.296Z,48.10
2019-03-20T11:24:53.491Z,56.83
2019-03-20T11:27:27.582Z,66.57
2019-03-20T11:29:54.966Z,66.80
2019-03-20T11:32:25.052Z,73.83
2019-03-20T11:34:55.953Z,83.75
2019-03-20T11:37:26.127Z,71.50
2019-03-20T11:39:56.225Z,68.95
2019-03-20T11:42:26.409Z,64.87
2019-03-20T11:44:56.751Z,68.17
2019-03-20T11:47:26.839Z,74.32
2019-03-20T11:49:56.693Z,75.15
2019-03-20T11:52:26.873Z,65.45
2019-03-20T11:54:56.929Z,72.87
2019-03-20T11:57:27.054Z,94.07
2019-03-20T11:59:57.220Z,81.32
2019-03-20T12:02:28.348Z,72.03
2019-03-20T12:04:58.742Z,72.97
2019-03-20T12:07:28.432Z,88.80
2019-03-20T12:09:59.041Z,97.60
2019-03-20T12:12:29.977Z,109.12
2019-03-20T12:15:00.107Z,104.25
2019-03-20T12:17:30.751Z,103.30
2019-03-20T12:20:00.936Z,98.17
2019-03-20T12:22:31.364Z,108.50
2019-03-20T12:25:01.445Z,86.95
2019-03-20T12:27:31.419Z,71.10
2019-03-20T12:30:01.786Z,65.20
2019-03-20T12:32:31.899Z,68.65
2019-03-20T12:35:01.936Z,65.37
2019-03-20T12:37:32.117Z,63.30
2019-03-20T12:40:02.227Z,73.70
2019-03-20T12:42:32.235Z,89.13
2019-03-20T12:45:02.597Z,92.42
2019-03-20T12:49:34.850Z,84.03
2019-03-20T12:52:05.080Z,88.92
2019-03-20T12:54:35.237Z,87.37
2019-03-20T12:57:05.224Z,86.35
2019-03-20T12:59:36.539Z,96.92
2019-03-20T13:02:08.261Z,78.00
2019-03-20T13:04:38.193Z,75.75
2019-03-20T13:07:08.431Z,74.65
2019-03-20T13:09:38.425Z,78.50
2019-03-20T13:12:08.455Z,75.50
2019-03-20T13:14:38.651Z,70.83
2019-03-20T13:17:08.974Z,70.35
2019-03-20T13:19:39.012Z,66.47
2019-03-20T13:22:09.138Z,93.75
2019-03-20T13:24:39.192Z,98.17
2019-03-20T13:27:09.363Z,77.30
2019-03-20T13:29:39.474Z,64.27
2019-03-20T13:32:09.483Z,65.67
2019-03-20T13:34:39.552Z,64.53
2019-03-20T13:37:12.102Z,70.97
2019-03-20T13:39:41.320Z,94.90
2019-03-20T13:42:11.497Z,81.17
2019-03-20T13:44:41.614Z,69.62
2019-03-20T13:47:11.649Z,66.70
2019-03-20T13:49:41.747Z,67.72
2019-03-20T13:52:11.956Z,69.25
2019-03-20T13:54:42.022Z,84.00
2019-03-20T13:57:12.151Z,75.97
2019-03-20T13:59:42.229Z,82.42
2019-03-20T14:02:12.326Z,71.50
2019-03-20T14:04:42.471Z,73.70
2019-03-20T14:07:12.520Z,78.90
2019-03-20T14:09:42.565Z,74.95
2019-03-20T14:12:12.687Z,78.00
2019-03-20T14:14:43.037Z,79.90
2019-03-20T14:17:13.078Z,85.07
2019-03-20T14:19:43.229Z,77.75
2019-03-20T14:22:13.184Z,71.90
2019-03-20T14:24:44.169Z,71.53
2019-03-20T14:27:14.567Z,66.72
2019-03-20T14:29:44.913Z,72.77
2019-03-20T14:32:14.922Z,83.78
2019-03-20T14:34:44.968Z,73.42
2019-03-20T14:37:15.027Z,76.42
2019-03-20T14:39:45.215Z,77.37
2019-03-20T14:42:15.430Z,83.00
2019-03-20T14:44:45.780Z,88.33
2019-03-20T14:47:15.765Z,85.20
2019-03-20T14:49:46.063Z,85.87
2019-03-20T14:52:15.917Z,86.80
2019-03-20T14:54:46.053Z,87.77
2019-03-20T14:57:16.209Z,84.95
2019-03-20T14:59:46.226Z,83.17
2019-03-20T15:02:16.383Z,87.97
2019-03-20T15:04:46.657Z,83.37
2019-03-20T15:07:16.697Z,87.50
2019-03-20T15:09:46.914Z,86.50
2019-03-20T15:12:17.046Z,79.85
2019-03-20T15:14:47.357Z,87.15
2019-03-20T15:17:17.460Z,86.02
2019-03-20T15:19:47.571Z,89.72
2019-03-20T15:22:17.491Z,81.47
2019-03-20T15:24:47.648Z,84.67
2019-03-20T15:27:17.240Z,80.83
2019-03-20T15:29:47.327Z,90.33
2019-03-20T15:32:17.495Z,84.10
2019-03-20T15:34:47.610Z,82.12
2019-03-20T15:37:17.744Z,79.27
2019-03-20T15:39:47.885Z,82.25
2019-03-20T15:42:17.581Z,82.72
2019-03-20T15:44:47.662Z,84.40
2019-03-20T15:47:17.746Z,86.08
2019-03-20T15:49:47.794Z,87.37
2019-03-20T15:52:18.018Z,103.83
2019-03-20T15:54:48.063Z,100.65
2019-03-20T15:57:18.096Z,91.97
2019-03-20T15:59:48.119Z,83.72
2019-03-20T16:02:18.401Z,81.50
2019-03-20T16:04:48.450Z,83.87
2019-03-20T16:07:18.576Z,81.50
2019-03-20T16:09:48.772Z,84.45
2019-03-20T16:12:18.755Z,84.65
2019-03-20T16:14:48.703Z,83.40
2019-03-20T16:17:18.947Z,83.75
2019-03-20T16:19:49.320Z,80.10
2019-03-20T16:22:19.416Z,84.83
2019-03-20T16:24:49.395Z,77.82
2019-03-20T16:27:19.303Z,82.25
2019-03-20T16:29:49.474Z,81.53
2019-03-20T16:32:19.399Z,80.62
2019-03-20T16:34:49.343Z,83.33
2019-03-20T16:37:19.520Z,76.82
2019-03-20T16:39:49.512Z,75.85
2019-03-20T16:42:19.544Z,75.60
2019-03-20T16:44:49.835Z,75.97
2019-03-20T16:47:19.826Z,81.63
2019-03-20T16:49:49.954Z,90.25
2019-03-20T16:52:20.287Z,92.20
2019-03-20T16:54:50.482Z,112.85
2019-03-20T16:57:21.881Z,117.77
2019-03-20T16:59:52.416Z,109.92
2019-03-20T17:02:22.642Z,111.37
2019-03-20T17:04:52.696Z,110.03
2019-03-20T17:07:22.721Z,106.52
2019-03-20T17:09:52.576Z,107.17
2019-03-20T17:12:22.574Z,95.97
2019-03-20T17:14:52.851Z,96.55
2019-03-20T17:17:23.061Z,97.05
2019-03-20T17:19:53.214Z,105.92
2019-03-20T17:22:23.417Z,102.65
2019-03-20T17:24:53.712Z,146.95
2019-03-20T17:27:23.955Z,97.07
2019-03-20T17:29:54.125Z,102.97
2019-03-20T17:32:24.220Z,97.22
2019-03-20T17:34:54.266Z,80.25
2019-03-20T17:37:24.384Z,71.37
2019-03-20T17:39:54.434Z,73.62
2019-03-20T17:42:24.604Z,71.65
2019-03-20T17:44:54.846Z,72.12
2019-03-20T17:47:24.924Z,79.50
2019-03-20T17:49:55.610Z,72.58
2019-03-20T17:52:25.869Z,76.82
2019-03-20T17:54:55.954Z,77.70
2019-03-20T17:57:26.104Z,77.72
2019-03-20T17:59:56.018Z,74.62
2019-03-20T18:02:26.165Z,76.17
2019-03-20T18:04:56.395Z,72.27
2019-03-20T18:07:26.558Z,72.03
2019-03-20T18:09:56.672Z,73.17
2019-03-20T18:12:26.624Z,78.03
2019-03-20T18:14:56.699Z,122.92
2019-03-20T18:17:26.833Z,122.65
2019-03-20T18:19:56.973Z,94.87
2019-03-20T18:22:27.057Z,91.22
2019-03-20T18:24:57.423Z,96.72
2019-03-20T18:27:27.554Z,94.35
2019-03-20T18:29:57.701Z,89.32
2019-03-20T18:32:27.772Z,84.60
2019-03-20T18:34:57.927Z,84.90
2019-03-20T18:37:28.603Z,84.03
2019-03-20T18:39:58.744Z,88.17
2019-03-20T18:42:29.009Z,87.00
2019-03-20T18:44:59.155Z,87.30
2019-03-20T18:47:29.087Z,81.70
2019-03-20T18:49:59.299Z,82.10
2019-03-20T18:52:29.526Z,77.87
2019-03-20T18:55:00.153Z,79.65
2019-03-20T18:57:30.486Z,78.78
2019-03-20T19:00:00.472Z,77.00
2019-03-20T19:02:30.479Z,80.72
2019-03-20T19:05:00.539Z,77.42
2019-03-20T19:07:30.622Z,78.65
2019-03-20T19:10:00.733Z,84.28
2019-03-20T19:12:30.855Z,80.32
2019-03-20T19:15:00.994Z,77.93
2019-03-20T19:17:31.105Z,80.50
2019-03-20T19:20:01.495Z,81.63
2019-03-20T19:22:31.705Z,81.47
2019-03-20T19:25:01.830Z,74.17
2019-03-20T19:27:32.123Z,75.85
2019-03-20T19:30:02.031Z,83.92
2019-03-20T19:32:32.098Z,77.45
2019-03-20T19:35:02.312Z,80.12
2019-03-20T19:37:32.403Z,71.28
2019-03-20T19:40:02.545Z,76.30
2019-03-20T19:42:32.662Z,77.75
2019-03-20T19:45:02.833Z,74.37
2019-03-20T19:47:33.207Z,82.75
2019-03-20T19:50:03.345Z,89.55
2019-03-20T19:52:33.965Z,78.40
2019-03-20T19:55:04.268Z,76.20
2019-03-20T19:57:34.216Z,79.05
2019-03-20T20:00:04.470Z,77.12
2019-03-20T20:02:34.534Z,69.87
2019-03-20T20:05:15.236Z,71.33
2019-03-20T20:07:36.920Z,70.35
2019-03-20T20:10:09.785Z,71.40
2019-03-20T20:12:39.913Z,65.62
2019-03-20T20:15:12.988Z,67.78
2019-03-20T20:17:42.948Z,70.75
2019-03-20T20:20:15.439Z,70.15
2019-03-20T20:22:45.651Z,66.15
2019-03-20T20:25:15.716Z,63.63
2019-03-20T20:27:45.879Z,60.30
2019-03-20T20:30:18.195Z,61.58
2019-03-20T20:32:48.309Z,61.77
2019-03-20T20:35:18.889Z,62.53
2019-03-20T20:37:50.306Z,60.70
2019-03-20T20:40:23.373Z,61.02
2019-03-20T20:42:53.367Z,60.43
2019-03-20T20:45:23.529Z,62.55
2019-03-20T20:47:53.524Z,57.33
2019-03-20T20:50:24.116Z,61.75
2019-03-20T20:52:54.101Z,58.87
2019-03-20T20:55:24.953Z,57.25
2019-03-20T20:57:55.219Z,60.30
2019-03-20T21:00:26.937Z,57.30
2019-03-20T21:02:56.981Z,60.25
2019-03-20T21:05:27.086Z,65.13
2019-03-20T21:07:57.155Z,58.60
2019-03-20T21:10:27.674Z,58.83
2019-03-20T21:12:57.886Z,57.95
2019-03-20T21:15:30.850Z,56.30
2019-03-20T21:18:03.869Z,63.55
2019-03-20T21:20:33.853Z,61.27
2019-03-20T21:23:06.863Z,58.95
2019-03-20T21:25:36.942Z,58.48
2019-03-20T21:28:10.130Z,57.73
2019-03-20T21:30:43.393Z,65.70
2019-03-20T21:33:16.472Z,61.68
2019-03-20T21:35:49.492Z,62.27
2019-03-20T21:38:18.831Z,62.05
2019-03-20T21:40:51.663Z,57.33
2019-03-20T21:43:24.802Z,62.27
2019-03-20T21:45:57.835Z,60.20
2019-03-20T21:48:27.750Z,59.83
2019-03-20T21:51:00.765Z,58.10
2019-03-20T21:53:33.839Z,60.95
2019-03-20T21:56:07.188Z,58.47
2019-03-20T21:58:40.109Z,63.38
2019-03-20T22:01:12.930Z,63.30
2019-03-20T22:03:43.908Z,61.02
2019-03-20T22:06:16.873Z,61.83
2019-03-20T22:08:47.217Z,56.92
2019-03-20T22:11:20.182Z,57.38
2019-03-20T22:13:53.135Z,56.60
2019-03-20T22:16:26.233Z,57.10
2019-03-20T22:18:59.422Z,56.75
2019-03-20T22:21:32.254Z,56.60
2019-03-20T22:24:05.359Z,59.33
2019-03-20T22:26:38.426Z,58.35
2019-03-20T22:29:11.365Z,59.10
2019-03-20T22:31:44.431Z,58.65
2019-03-20T22:34:17.429Z,60.38
2019-03-20T22:36:47.434Z,66.07
2019-03-20T22:39:20.490Z,64.15
2019-03-20T22:41:53.454Z,65.93
2019-03-20T22:44:24.589Z,66.15
2019-03-20T22:46:57.657Z,65.25
2019-03-20T22:49:30.590Z,67.67
2019-03-20T22:52:03.694Z,63.17
2019-03-20T22:54:36.626Z,71.07
2019-03-20T22:57:09.662Z,69.40
2019-03-20T22:59:39.651Z,69.25
2019-03-20T23:02:12.675Z,70.07
2019-03-20T23:04:45.731Z,71.28
2019-03-20T23:07:15.782Z,68.55
2019-03-20T23:09:45.744Z,70.87
2019-03-20T23:12:17.920Z,70.55
2019-03-20T23:14:47.684Z,74.92
2019-03-20T23:17:17.757Z,70.85
2019-03-20T23:19:48.508Z,70.10
2019-03-20T23:22:18.551Z,67.22
2019-03-20T23:24:48.663Z,62.65
2019-03-20T23:27:21.664Z,63.83
2019-03-20T23:29:51.914Z,70.72
2019-03-20T23:32:22.166Z,69.10
2019-03-20T23:34:52.182Z,66.30
2019-03-20T23:37:22.367Z,72.60
2019-03-20T23:39:52.853Z,71.22
2019-03-20T23:42:23.964Z,70.62
2019-03-20T23:44:54.092Z,70.15
2019-03-20T23:47:27.125Z,76.10
2019-03-20T23:49:57.435Z,73.92
2019-03-20T23:52:27.573Z,74.20
2019-03-20T23:54:57.642Z,73.78
2019-03-20T23:57:27.689Z,73.20
2019-03-20T23:59:57.817Z,66.80
